sensor_id;sensor_type;location;lat;lon;timestamp;temperature;humidity
573;DHT22;271;51.114;13.780;2022-10-04T00:01:03;12.80;1.00
573;DHT22;271;51.114;13.780;2022-10-04T00:03:37;12.80;1.00
573;DHT22;271;51.114;13.780;2022-10-04T00:06:16;12.70;1.00
573;DHT22;271;51.114;13.780;2022-10-04T00:08:48;12.70;1.00
573;DHT22;271;51.114;13.780;2022-10-04T00:11:19;12.70;1.00
573;DHT22;271;51.114;13.780;2022-10-04T00:13:51;12.70;1.00
573;DHT22;271;51.114;13.780;2022-10-04T00:16:25;12.70;1.00
573;DHT22;271;51.114;13.780;2022-10-04T00:19:02;12.80;1.00
573;DHT22;271;51.114;13.780;2022-10-04T00:33:44;12.70;1.00
573;DHT22;271;51.114;13.780;2022-10-04T00:39:39;12.80;1.00
573;DHT22;271;51.114;13.780;2022-10-04T00:42:25;12.80;1.00
573;DHT22;271;51.114;13.780;2022-10-04T00:44:59;12.80;1.00
573;DHT22;271;51.114;13.780;2022-10-04T00:47:31;12.80;1.00
573;DHT22;271;51.114;13.780;2022-10-04T00:50:10;12.70;1.00
573;DHT22;271;51.114;13.780;2022-10-04T00:52:43;12.70;1.00
573;DHT22;271;51.114;13.780;2022-10-04T00:55:21;12.70;1.00
573;DHT22;271;51.114;13.780;2022-10-04T00:57:53;12.70;1.00
573;DHT22;271;51.114;13.780;2022-10-04T01:00:25;12.70;1.00
573;DHT22;271;51.114;13.780;2022-10-04T01:02:57;12.80;1.00
573;DHT22;271;51.114;13.780;2022-10-04T01:05:32;12.70;1.00
573;DHT22;271;51.114;13.780;2022-10-04T01:08:05;12.70;1.00
573;DHT22;271;51.114;13.780;2022-10-04T01:10:39;12.70;1.00
573;DHT22;271;51.114;13.780;2022-10-04T01:13:11;12.70;1.00
573;DHT22;271;51.114;13.780;2022-10-04T01:15:42;12.70;1.00
573;DHT22;271;51.114;13.780;2022-10-04T01:18:13;12.70;1.00
573;DHT22;271;51.114;13.780;2022-10-04T01:20:52;12.70;1.00
573;DHT22;271;51.114;13.780;2022-10-04T01:23:48;12.70;1.00
573;DHT22;271;51.114;13.780;2022-10-04T01:26:46;12.70;1.00
573;DHT22;271;51.114;13.780;2022-10-04T01:29:15;12.70;1.00
573;DHT22;271;51.114;13.780;2022-10-04T01:31:44;12.70;1.00
573;DHT22;271;51.114;13.780;2022-10-04T01:34:14;12.70;1.00
573;DHT22;271;51.114;13.780;2022-10-04T01:36:42;12.70;1.00
573;DHT22;271;51.114;13.780;2022-10-04T01:39:14;12.70;1.00
573;DHT22;271;51.114;13.780;2022-10-04T01:41:47;12.70;1.00
573;DHT22;271;51.114;13.780;2022-10-04T01:44:28;12.60;1.00
573;DHT22;271;51.114;13.780;2022-10-04T01:47:00;12.60;1.00
573;DHT22;271;51.114;13.780;2022-10-04T01:49:30;12.60;1.00
573;DHT22;271;51.114;13.780;2022-10-04T01:52:02;12.60;1.00
573;DHT22;271;51.114;13.780;2022-10-04T01:54:36;12.60;1.00
573;DHT22;271;51.114;13.780;2022-10-04T01:57:11;12.60;1.00
573;DHT22;271;51.114;13.780;2022-10-04T01:59:45;12.70;1.00
573;DHT22;271;51.114;13.780;2022-10-04T02:02:20;12.60;1.00
573;DHT22;271;51.114;13.780;2022-10-04T02:04:53;12.70;1.00
573;DHT22;271;51.114;13.780;2022-10-04T02:07:22;12.60;1.00
573;DHT22;271;51.114;13.780;2022-10-04T02:09:56;12.60;1.00
573;DHT22;271;51.114;13.780;2022-10-04T02:12:26;12.60;1.00
573;DHT22;271;51.114;13.780;2022-10-04T02:14:58;12.60;1.00
573;DHT22;271;51.114;13.780;2022-10-04T02:17:29;12.60;1.00
573;DHT22;271;51.114;13.780;2022-10-04T02:19:57;12.60;1.00
573;DHT22;271;51.114;13.780;2022-10-04T02:22:26;12.60;1.00
573;DHT22;271;51.114;13.780;2022-10-04T02:24:55;12.60;1.00
573;DHT22;271;51.114;13.780;2022-10-04T02:27:25;12.60;1.00
573;DHT22;271;51.114;13.780;2022-10-04T02:29:59;12.60;1.00
573;DHT22;271;51.114;13.780;2022-10-04T02:32:29;12.50;1.00
573;DHT22;271;51.114;13.780;2022-10-04T02:35:15;12.60;1.00
573;DHT22;271;51.114;13.780;2022-10-04T02:37:42;12.50;1.00
573;DHT22;271;51.114;13.780;2022-10-04T02:40:13;12.50;1.00
573;DHT22;271;51.114;13.780;2022-10-04T02:42:45;12.50;1.00
573;DHT22;271;51.114;13.780;2022-10-04T02:45:20;12.50;1.00
573;DHT22;271;51.114;13.780;2022-10-04T02:47:53;12.50;1.00
573;DHT22;271;51.114;13.780;2022-10-04T02:50:28;12.50;1.00
573;DHT22;271;51.114;13.780;2022-10-04T02:53:00;12.50;1.00
573;DHT22;271;51.114;13.780;2022-10-04T02:55:32;12.50;1.00
573;DHT22;271;51.114;13.780;2022-10-04T02:58:00;12.60;1.00
573;DHT22;271;51.114;13.780;2022-10-04T03:00:30;12.50;1.00
573;DHT22;271;51.114;13.780;2022-10-04T03:03:11;12.60;1.00
573;DHT22;271;51.114;13.780;2022-10-04T03:05:42;12.50;1.00
573;DHT22;271;51.114;13.780;2022-10-04T03:08:11;12.50;1.00
573;DHT22;271;51.114;13.780;2022-10-04T03:10:41;12.50;1.00
573;DHT22;271;51.114;13.780;2022-10-04T03:13:09;12.50;1.00
573;DHT22;271;51.114;13.780;2022-10-04T03:15:38;12.40;1.00
573;DHT22;271;51.114;13.780;2022-10-04T03:18:06;12.50;1.00
573;DHT22;271;51.114;13.780;2022-10-04T03:20:36;12.50;1.00
573;DHT22;271;51.114;13.780;2022-10-04T03:23:04;12.50;1.00
573;DHT22;271;51.114;13.780;2022-10-04T03:25:49;12.50;1.00
573;DHT22;271;51.114;13.780;2022-10-04T03:28:17;12.50;1.00
573;DHT22;271;51.114;13.780;2022-10-04T03:30:46;12.40;1.00
573;DHT22;271;51.114;13.780;2022-10-04T03:33:22;12.40;1.00
573;DHT22;271;51.114;13.780;2022-10-04T03:35:52;12.30;1.00
573;DHT22;271;51.114;13.780;2022-10-04T03:38:21;12.50;1.00
573;DHT22;271;51.114;13.780;2022-10-04T03:40:54;12.40;1.00
573;DHT22;271;51.114;13.780;2022-10-04T03:43:25;12.40;1.00
573;DHT22;271;51.114;13.780;2022-10-04T03:45:54;12.40;1.00
573;DHT22;271;51.114;13.780;2022-10-04T03:48:28;12.30;1.00
573;DHT22;271;51.114;13.780;2022-10-04T03:50:57;12.40;1.00
573;DHT22;271;51.114;13.780;2022-10-04T03:53:29;12.40;1.00
573;DHT22;271;51.114;13.780;2022-10-04T03:55:58;12.40;1.00
573;DHT22;271;51.114;13.780;2022-10-04T03:58:28;12.40;1.00
573;DHT22;271;51.114;13.780;2022-10-04T04:01:09;12.40;1.00
573;DHT22;271;51.114;13.780;2022-10-04T04:03:47;12.40;1.00
573;DHT22;271;51.114;13.780;2022-10-04T04:06:18;12.40;1.00
573;DHT22;271;51.114;13.780;2022-10-04T04:08:48;12.30;1.00
573;DHT22;271;51.114;13.780;2022-10-04T04:11:22;12.30;1.00
573;DHT22;271;51.114;13.780;2022-10-04T04:13:56;12.40;1.00
573;DHT22;271;51.114;13.780;2022-10-04T04:16:24;12.40;1.00
573;DHT22;271;51.114;13.780;2022-10-04T04:18:53;12.40;1.00
573;DHT22;271;51.114;13.780;2022-10-04T04:21:22;12.40;1.00
573;DHT22;271;51.114;13.780;2022-10-04T04:23:55;12.30;1.00
573;DHT22;271;51.114;13.780;2022-10-04T04:26:32;12.30;1.00
573;DHT22;271;51.114;13.780;2022-10-04T04:29:05;12.40;1.00
573;DHT22;271;51.114;13.780;2022-10-04T04:31:36;12.30;1.00
573;DHT22;271;51.114;13.780;2022-10-04T04:34:15;12.30;1.00
573;DHT22;271;51.114;13.780;2022-10-04T04:36:43;12.30;1.00
573;DHT22;271;51.114;13.780;2022-10-04T04:39:15;12.30;1.00
573;DHT22;271;51.114;13.780;2022-10-04T04:42:06;12.30;1.00
573;DHT22;271;51.114;13.780;2022-10-04T04:44:38;12.30;1.00
573;DHT22;271;51.114;13.780;2022-10-04T04:47:18;12.30;1.00
573;DHT22;271;51.114;13.780;2022-10-04T04:49:48;12.30;1.00
573;DHT22;271;51.114;13.780;2022-10-04T04:52:17;12.30;1.00
573;DHT22;271;51.114;13.780;2022-10-04T04:54:45;12.30;1.00
573;DHT22;271;51.114;13.780;2022-10-04T04:57:16;12.30;1.00
573;DHT22;271;51.114;13.780;2022-10-04T04:59:46;12.20;1.00
573;DHT22;271;51.114;13.780;2022-10-04T05:02:30;12.30;1.00
573;DHT22;271;51.114;13.780;2022-10-04T05:05:15;12.30;1.00
573;DHT22;271;51.114;13.780;2022-10-04T05:07:43;12.30;1.00
573;DHT22;271;51.114;13.780;2022-10-04T05:10:26;12.30;1.00
573;DHT22;271;51.114;13.780;2022-10-04T05:12:56;12.30;1.00
573;DHT22;271;51.114;13.780;2022-10-04T05:15:25;12.30;1.00
573;DHT22;271;51.114;13.780;2022-10-04T05:17:53;12.30;1.00
573;DHT22;271;51.114;13.780;2022-10-04T05:20:20;12.30;1.00
573;DHT22;271;51.114;13.780;2022-10-04T05:22:48;12.30;1.00
573;DHT22;271;51.114;13.780;2022-10-04T05:25:25;12.30;1.00
573;DHT22;271;51.114;13.780;2022-10-04T05:27:55;12.30;1.00
573;DHT22;271;51.114;13.780;2022-10-04T05:30:44;12.20;1.00
573;DHT22;271;51.114;13.780;2022-10-04T05:33:19;12.20;1.00
573;DHT22;271;51.114;13.780;2022-10-04T05:36:01;12.20;1.00
573;DHT22;271;51.114;13.780;2022-10-04T05:38:36;12.20;1.00
573;DHT22;271;51.114;13.780;2022-10-04T05:41:08;12.20;1.00
573;DHT22;271;51.114;13.780;2022-10-04T05:43:43;12.20;1.00
573;DHT22;271;51.114;13.780;2022-10-04T05:46:20;12.20;1.00
573;DHT22;271;51.114;13.780;2022-10-04T05:48:51;12.20;1.00
573;DHT22;271;51.114;13.780;2022-10-04T05:51:21;12.20;1.00
573;DHT22;271;51.114;13.780;2022-10-04T05:53:49;12.20;1.00
573;DHT22;271;51.114;13.780;2022-10-04T05:59:25;12.20;1.00
573;DHT22;271;51.114;13.780;2022-10-04T06:02:07;12.20;1.00
573;DHT22;271;51.114;13.780;2022-10-04T06:04:48;12.20;1.00
573;DHT22;271;51.114;13.780;2022-10-04T06:07:24;12.20;1.00
573;DHT22;271;51.114;13.780;2022-10-04T06:10:07;12.20;1.00
573;DHT22;271;51.114;13.780;2022-10-04T06:12:47;12.20;1.00
573;DHT22;271;51.114;13.780;2022-10-04T06:15:49;12.20;1.00
573;DHT22;271;51.114;13.780;2022-10-04T06:18:40;12.20;1.00
573;DHT22;271;51.114;13.780;2022-10-04T06:21:18;12.20;1.00
573;DHT22;271;51.114;13.780;2022-10-04T06:23:50;12.30;1.00
573;DHT22;271;51.114;13.780;2022-10-04T06:26:21;12.40;1.00
573;DHT22;271;51.114;13.780;2022-10-04T06:28:54;12.30;1.00
573;DHT22;271;51.114;13.780;2022-10-04T06:34:57;12.40;1.00
573;DHT22;271;51.114;13.780;2022-10-04T06:37:53;12.40;1.00
573;DHT22;271;51.114;13.780;2022-10-04T06:40:36;12.50;1.00
573;DHT22;271;51.114;13.780;2022-10-04T06:43:30;12.50;1.00
573;DHT22;271;51.114;13.780;2022-10-04T06:46:07;12.50;1.00
573;DHT22;271;51.114;13.780;2022-10-04T06:49:05;12.60;1.00
573;DHT22;271;51.114;13.780;2022-10-04T06:51:51;12.60;1.00
573;DHT22;271;51.114;13.780;2022-10-04T06:54:38;12.60;1.00
573;DHT22;271;51.114;13.780;2022-10-04T06:57:31;12.60;1.00
573;DHT22;271;51.114;13.780;2022-10-04T07:00:07;12.60;1.00
573;DHT22;271;51.114;13.780;2022-10-04T07:02:41;12.60;1.00
573;DHT22;271;51.114;13.780;2022-10-04T07:05:18;12.70;1.00
573;DHT22;271;51.114;13.780;2022-10-04T07:07:52;12.70;1.00
573;DHT22;271;51.114;13.780;2022-10-04T07:10:35;12.70;1.00
573;DHT22;271;51.114;13.780;2022-10-04T07:13:12;12.80;1.00
573;DHT22;271;51.114;13.780;2022-10-04T07:15:46;12.80;1.00
573;DHT22;271;51.114;13.780;2022-10-04T07:18:25;12.80;1.00
573;DHT22;271;51.114;13.780;2022-10-04T07:21:02;12.90;1.00
573;DHT22;271;51.114;13.780;2022-10-04T07:23:35;13.00;1.00
573;DHT22;271;51.114;13.780;2022-10-04T07:26:12;13.10;1.00
573;DHT22;271;51.114;13.780;2022-10-04T07:28:44;13.10;1.00
573;DHT22;271;51.114;13.780;2022-10-04T07:31:32;13.10;1.00
573;DHT22;271;51.114;13.780;2022-10-04T07:34:07;13.10;1.00
573;DHT22;271;51.114;13.780;2022-10-04T07:36:41;13.20;1.00
573;DHT22;271;51.114;13.780;2022-10-04T07:39:12;13.30;1.00
573;DHT22;271;51.114;13.780;2022-10-04T07:41:47;13.40;1.00
573;DHT22;271;51.114;13.780;2022-10-04T07:44:32;13.40;1.00
573;DHT22;271;51.114;13.780;2022-10-04T07:47:08;13.50;1.00
573;DHT22;271;51.114;13.780;2022-10-04T07:49:38;13.60;1.00
573;DHT22;271;51.114;13.780;2022-10-04T07:52:50;13.70;1.00
573;DHT22;271;51.114;13.780;2022-10-04T07:55:25;13.70;1.00
573;DHT22;271;51.114;13.780;2022-10-04T07:58:13;13.80;1.00
573;DHT22;271;51.114;13.780;2022-10-04T08:00:49;13.90;1.00
573;DHT22;271;51.114;13.780;2022-10-04T08:03:47;13.90;1.00
573;DHT22;271;51.114;13.780;2022-10-04T08:06:21;14.00;1.00
573;DHT22;271;51.114;13.780;2022-10-04T08:09:15;14.00;1.00
573;DHT22;271;51.114;13.780;2022-10-04T08:11:53;14.10;1.00
573;DHT22;271;51.114;13.780;2022-10-04T08:14:38;14.10;1.00
573;DHT22;271;51.114;13.780;2022-10-04T08:17:36;14.10;1.00
573;DHT22;271;51.114;13.780;2022-10-04T08:20:42;14.10;1.00
573;DHT22;271;51.114;13.780;2022-10-04T08:26:31;14.10;1.00
573;DHT22;271;51.114;13.780;2022-10-04T08:29:14;14.20;1.00
573;DHT22;271;51.114;13.780;2022-10-04T08:32:04;14.30;1.00
573;DHT22;271;51.114;13.780;2022-10-04T08:34:50;14.40;1.00
573;DHT22;271;51.114;13.780;2022-10-04T08:37:34;14.50;1.00
573;DHT22;271;51.114;13.780;2022-10-04T08:40:37;14.60;1.00
573;DHT22;271;51.114;13.780;2022-10-04T08:43:47;14.70;1.00
573;DHT22;271;51.114;13.780;2022-10-04T08:46:50;14.70;1.00
573;DHT22;271;51.114;13.780;2022-10-04T08:52:57;14.70;1.00
573;DHT22;271;51.114;13.780;2022-10-04T08:56:04;14.50;1.00
573;DHT22;271;51.114;13.780;2022-10-04T08:59:04;14.50;1.00
573;DHT22;271;51.114;13.780;2022-10-04T09:05:10;14.70;1.00
573;DHT22;271;51.114;13.780;2022-10-04T09:17:17;14.90;1.00
573;DHT22;271;51.114;13.780;2022-10-04T09:19:55;14.90;1.00
573;DHT22;271;51.114;13.780;2022-10-04T09:22:44;15.00;1.00
573;DHT22;271;51.114;13.780;2022-10-04T09:31:42;15.30;1.00
573;DHT22;271;51.114;13.780;2022-10-04T09:34:26;15.20;1.00
573;DHT22;271;51.114;13.780;2022-10-04T09:37:23;15.20;1.00
573;DHT22;271;51.114;13.780;2022-10-04T09:43:57;15.40;1.00
573;DHT22;271;51.114;13.780;2022-10-04T09:46:45;15.50;1.00
573;DHT22;271;51.114;13.780;2022-10-04T09:49:36;15.40;1.00
573;DHT22;271;51.114;13.780;2022-10-04T09:52:16;15.60;1.00
573;DHT22;271;51.114;13.780;2022-10-04T09:55:16;16.00;1.00
573;DHT22;271;51.114;13.780;2022-10-04T09:58:04;16.20;1.00
573;DHT22;271;51.114;13.780;2022-10-04T10:01:02;16.10;1.00
573;DHT22;271;51.114;13.780;2022-10-04T10:03:55;16.20;1.00
573;DHT22;271;51.114;13.780;2022-10-04T10:06:53;16.20;1.00
573;DHT22;271;51.114;13.780;2022-10-04T10:09:29;16.10;1.00
573;DHT22;271;51.114;13.780;2022-10-04T10:15:32;16.20;1.00
573;DHT22;271;51.114;13.780;2022-10-04T10:18:11;16.30;1.00
573;DHT22;271;51.114;13.780;2022-10-04T10:21:10;16.50;1.00
573;DHT22;271;51.114;13.780;2022-10-04T10:24:00;16.90;1.00
573;DHT22;271;51.114;13.780;2022-10-04T10:26:56;17.10;1.00
573;DHT22;271;51.114;13.780;2022-10-04T10:29:42;17.10;1.00
573;DHT22;271;51.114;13.780;2022-10-04T10:32:43;17.20;1.00
573;DHT22;271;51.114;13.780;2022-10-04T10:38:30;16.90;1.00
573;DHT22;271;51.114;13.780;2022-10-04T10:41:28;17.00;1.00
573;DHT22;271;51.114;13.780;2022-10-04T10:44:10;16.90;1.00
573;DHT22;271;51.114;13.780;2022-10-04T10:47:10;16.70;1.00
573;DHT22;271;51.114;13.780;2022-10-04T10:49:47;16.60;1.00
573;DHT22;271;51.114;13.780;2022-10-04T10:55:45;16.60;1.00
573;DHT22;271;51.114;13.780;2022-10-04T10:58:50;16.60;1.00
573;DHT22;271;51.114;13.780;2022-10-04T11:01:45;16.70;1.00
573;DHT22;271;51.114;13.780;2022-10-04T11:04:32;16.70;1.00
573;DHT22;271;51.114;13.780;2022-10-04T11:07:39;16.70;1.00
573;DHT22;271;51.114;13.780;2022-10-04T11:10:54;16.70;1.00
573;DHT22;271;51.114;13.780;2022-10-04T11:13:46;16.50;1.00
573;DHT22;271;51.114;13.780;2022-10-04T11:20:06;16.60;1.00
573;DHT22;271;51.114;13.780;2022-10-04T11:28:58;16.90;1.00
573;DHT22;271;51.114;13.780;2022-10-04T11:35:25;17.00;1.00
573;DHT22;271;51.114;13.780;2022-10-04T11:38:02;16.90;1.00
573;DHT22;271;51.114;13.780;2022-10-04T11:40:48;17.00;1.00
573;DHT22;271;51.114;13.780;2022-10-04T11:43:50;16.90;1.00
573;DHT22;271;51.114;13.780;2022-10-04T11:46:43;16.70;1.00
573;DHT22;271;51.114;13.780;2022-10-04T11:49:32;16.50;1.00
573;DHT22;271;51.114;13.780;2022-10-04T11:52:29;16.30;1.00
573;DHT22;271;51.114;13.780;2022-10-04T11:58:15;16.20;1.00
573;DHT22;271;51.114;13.780;2022-10-04T12:01:02;16.20;1.00
573;DHT22;271;51.114;13.780;2022-10-04T12:06:43;16.40;1.00
573;DHT22;271;51.114;13.780;2022-10-04T12:09:34;16.50;1.00
573;DHT22;271;51.114;13.780;2022-10-04T12:12:24;16.50;1.00
573;DHT22;271;51.114;13.780;2022-10-04T12:15:27;16.40;1.00
573;DHT22;271;51.114;13.780;2022-10-04T12:18:21;16.50;1.00
573;DHT22;271;51.114;13.780;2022-10-04T12:21:20;16.40;1.00
573;DHT22;271;51.114;13.780;2022-10-04T12:30:42;16.50;1.00
573;DHT22;271;51.114;13.780;2022-10-04T12:33:25;16.50;1.00
573;DHT22;271;51.114;13.780;2022-10-04T12:36:23;16.40;1.00
573;DHT22;271;51.114;13.780;2022-10-04T12:39:02;16.40;1.00
573;DHT22;271;51.114;13.780;2022-10-04T12:41:53;16.30;1.00
573;DHT22;271;51.114;13.780;2022-10-04T12:44:34;16.40;1.00
573;DHT22;271;51.114;13.780;2022-10-04T12:47:35;16.40;1.00
573;DHT22;271;51.114;13.780;2022-10-04T12:50:16;16.40;1.00
573;DHT22;271;51.114;13.780;2022-10-04T12:52:53;16.40;1.00
573;DHT22;271;51.114;13.780;2022-10-04T12:55:47;16.50;1.00
573;DHT22;271;51.114;13.780;2022-10-04T12:58:23;16.50;1.00
573;DHT22;271;51.114;13.780;2022-10-04T13:01:20;16.50;1.00
573;DHT22;271;51.114;13.780;2022-10-04T13:04:09;16.60;1.00
573;DHT22;271;51.114;13.780;2022-10-04T13:06:49;16.70;1.00
573;DHT22;271;51.114;13.780;2022-10-04T13:09:24;16.80;1.00
573;DHT22;271;51.114;13.780;2022-10-04T13:12:23;16.90;1.00
573;DHT22;271;51.114;13.780;2022-10-04T13:15:13;17.00;1.00
573;DHT22;271;51.114;13.780;2022-10-04T13:17:59;17.00;1.00
573;DHT22;271;51.114;13.780;2022-10-04T13:20:39;17.10;1.00
573;DHT22;271;51.114;13.780;2022-10-04T13:23:36;17.10;1.00
573;DHT22;271;51.114;13.780;2022-10-04T13:28:59;17.40;1.00
573;DHT22;271;51.114;13.780;2022-10-04T13:31:47;17.50;1.00
573;DHT22;271;51.114;13.780;2022-10-04T13:34:22;17.70;1.00
573;DHT22;271;51.114;13.780;2022-10-04T13:37:19;17.80;1.00
573;DHT22;271;51.114;13.780;2022-10-04T13:40:10;18.00;1.00
573;DHT22;271;51.114;13.780;2022-10-04T13:43:03;18.10;1.00
573;DHT22;271;51.114;13.780;2022-10-04T13:45:40;18.40;1.00
573;DHT22;271;51.114;13.780;2022-10-04T13:48:27;18.60;1.00
573;DHT22;271;51.114;13.780;2022-10-04T13:51:11;18.90;1.00
573;DHT22;271;51.114;13.780;2022-10-04T13:54:05;19.10;1.00
573;DHT22;271;51.114;13.780;2022-10-04T13:57:27;19.30;1.00
573;DHT22;271;51.114;13.780;2022-10-04T14:00:01;19.40;1.00
573;DHT22;271;51.114;13.780;2022-10-04T14:03:09;19.40;1.00
573;DHT22;271;51.114;13.780;2022-10-04T14:08:59;19.50;1.00
573;DHT22;271;51.114;13.780;2022-10-04T14:18:13;18.50;1.00
573;DHT22;271;51.114;13.780;2022-10-04T14:21:15;18.20;1.00
573;DHT22;271;51.114;13.780;2022-10-04T14:27:07;17.90;1.00
573;DHT22;271;51.114;13.780;2022-10-04T14:32:55;17.60;1.00
573;DHT22;271;51.114;13.780;2022-10-04T14:35:26;17.40;1.00
573;DHT22;271;51.114;13.780;2022-10-04T14:44:47;17.20;1.00
573;DHT22;271;51.114;13.780;2022-10-04T14:47:33;17.00;1.00
573;DHT22;271;51.114;13.780;2022-10-04T14:50:24;17.00;1.00
573;DHT22;271;51.114;13.780;2022-10-04T14:53:09;16.90;1.00
573;DHT22;271;51.114;13.780;2022-10-04T14:58:52;16.80;1.00
573;DHT22;271;51.114;13.780;2022-10-04T15:01:38;16.70;1.00
573;DHT22;271;51.114;13.780;2022-10-04T15:04:18;16.70;1.00
573;DHT22;271;51.114;13.780;2022-10-04T15:06:53;16.60;1.00
573;DHT22;271;51.114;13.780;2022-10-04T15:09:41;16.60;1.00
573;DHT22;271;51.114;13.780;2022-10-04T15:15:34;16.50;1.00
573;DHT22;271;51.114;13.780;2022-10-04T15:20:59;16.40;1.00
573;DHT22;271;51.114;13.780;2022-10-04T15:23:32;16.30;1.00
573;DHT22;271;51.114;13.780;2022-10-04T15:29:02;16.30;1.00
573;DHT22;271;51.114;13.780;2022-10-04T15:31:36;16.20;1.00
573;DHT22;271;51.114;13.780;2022-10-04T15:34:31;16.20;1.00
573;DHT22;271;51.114;13.780;2022-10-04T15:37:17;16.10;1.00
573;DHT22;271;51.114;13.780;2022-10-04T15:40:15;16.00;1.00
573;DHT22;271;51.114;13.780;2022-10-04T15:43:19;16.00;1.00
573;DHT22;271;51.114;13.780;2022-10-04T15:46:22;16.00;1.00
573;DHT22;271;51.114;13.780;2022-10-04T15:49:27;15.90;1.00
573;DHT22;271;51.114;13.780;2022-10-04T15:55:21;15.70;1.00
573;DHT22;271;51.114;13.780;2022-10-04T15:58:16;15.60;1.00
573;DHT22;271;51.114;13.780;2022-10-04T16:00:55;15.50;1.00
573;DHT22;271;51.114;13.780;2022-10-04T16:03:37;15.40;1.00
573;DHT22;271;51.114;13.780;2022-10-04T16:06:09;15.30;1.00
573;DHT22;271;51.114;13.780;2022-10-04T16:08:56;15.30;1.00
573;DHT22;271;51.114;13.780;2022-10-04T16:11:58;15.10;1.00
573;DHT22;271;51.114;13.780;2022-10-04T16:14:48;15.00;1.00
573;DHT22;271;51.114;13.780;2022-10-04T16:17:31;14.90;1.00
573;DHT22;271;51.114;13.780;2022-10-04T16:20:27;14.90;1.00
573;DHT22;271;51.114;13.780;2022-10-04T16:29:26;14.40;1.00
573;DHT22;271;51.114;13.780;2022-10-04T16:31:58;14.30;1.00
573;DHT22;271;51.114;13.780;2022-10-04T16:34:47;14.20;1.00
573;DHT22;271;51.114;13.780;2022-10-04T16:37:25;14.10;1.00
573;DHT22;271;51.114;13.780;2022-10-04T16:39:56;14.00;1.00
573;DHT22;271;51.114;13.780;2022-10-04T16:42:38;13.90;1.00
573;DHT22;271;51.114;13.780;2022-10-04T16:45:33;13.90;1.00
573;DHT22;271;51.114;13.780;2022-10-04T16:48:10;13.70;1.00
573;DHT22;271;51.114;13.780;2022-10-04T16:50:55;13.70;1.00
573;DHT22;271;51.114;13.780;2022-10-04T16:53:33;13.60;1.00
573;DHT22;271;51.114;13.780;2022-10-04T16:56:10;13.40;1.00
573;DHT22;271;51.114;13.780;2022-10-04T16:58:48;13.30;1.00
573;DHT22;271;51.114;13.780;2022-10-04T17:01:28;13.20;1.00
573;DHT22;271;51.114;13.780;2022-10-04T17:04:10;13.10;1.00
573;DHT22;271;51.114;13.780;2022-10-04T17:06:48;13.10;1.00
573;DHT22;271;51.114;13.780;2022-10-04T17:09:23;13.10;1.00
573;DHT22;271;51.114;13.780;2022-10-04T17:12:04;12.90;1.00
573;DHT22;271;51.114;13.780;2022-10-04T17:14:53;12.90;1.00
573;DHT22;271;51.114;13.780;2022-10-04T17:17:28;12.90;1.00
573;DHT22;271;51.114;13.780;2022-10-04T17:20:03;12.80;1.00
573;DHT22;271;51.114;13.780;2022-10-04T17:22:44;12.70;1.00
573;DHT22;271;51.114;13.780;2022-10-04T17:25:24;12.60;1.00
573;DHT22;271;51.114;13.780;2022-10-04T17:27:58;12.60;1.00
573;DHT22;271;51.114;13.780;2022-10-04T17:30:43;12.50;1.00
573;DHT22;271;51.114;13.780;2022-10-04T17:33:28;12.50;1.00
573;DHT22;271;51.114;13.780;2022-10-04T17:36:27;12.40;1.00
573;DHT22;271;51.114;13.780;2022-10-04T17:39:06;12.20;1.00
573;DHT22;271;51.114;13.780;2022-10-04T17:41:53;12.10;1.00
573;DHT22;271;51.114;13.780;2022-10-04T17:44:39;12.10;1.00
573;DHT22;271;51.114;13.780;2022-10-04T17:47:12;12.00;1.00
573;DHT22;271;51.114;13.780;2022-10-04T17:49:53;11.90;1.00
573;DHT22;271;51.114;13.780;2022-10-04T17:52:42;11.90;1.00
573;DHT22;271;51.114;13.780;2022-10-04T17:55:35;11.80;1.00
573;DHT22;271;51.114;13.780;2022-10-04T17:58:12;11.80;1.00
573;DHT22;271;51.114;13.780;2022-10-04T18:00:54;11.80;1.00
573;DHT22;271;51.114;13.780;2022-10-04T18:03:31;11.70;1.00
573;DHT22;271;51.114;13.780;2022-10-04T18:06:13;11.70;1.00
573;DHT22;271;51.114;13.780;2022-10-04T18:08:45;11.70;1.00
573;DHT22;271;51.114;13.780;2022-10-04T18:11:20;11.70;1.00
573;DHT22;271;51.114;13.780;2022-10-04T18:13:56;11.50;1.00
573;DHT22;271;51.114;13.780;2022-10-04T18:16:27;11.50;1.00
573;DHT22;271;51.114;13.780;2022-10-04T18:18:57;11.50;1.00
573;DHT22;271;51.114;13.780;2022-10-04T18:21:30;11.50;1.00
573;DHT22;271;51.114;13.780;2022-10-04T18:24:01;11.40;1.00
573;DHT22;271;51.114;13.780;2022-10-04T18:26:53;11.40;1.00
573;DHT22;271;51.114;13.780;2022-10-04T18:29:34;11.40;1.00
573;DHT22;271;51.114;13.780;2022-10-04T18:32:15;11.30;1.00
573;DHT22;271;51.114;13.780;2022-10-04T18:34:52;11.30;1.00
573;DHT22;271;51.114;13.780;2022-10-04T18:37:28;11.30;1.00
573;DHT22;271;51.114;13.780;2022-10-04T18:40:05;11.30;1.00
573;DHT22;271;51.114;13.780;2022-10-04T18:42:40;11.20;1.00
573;DHT22;271;51.114;13.780;2022-10-04T18:45:18;11.30;1.00
573;DHT22;271;51.114;13.780;2022-10-04T18:47:46;11.30;1.00
573;DHT22;271;51.114;13.780;2022-10-04T18:50:22;11.10;1.00
573;DHT22;271;51.114;13.780;2022-10-04T18:53:10;11.10;1.00
573;DHT22;271;51.114;13.780;2022-10-04T18:55:45;11.10;1.00
573;DHT22;271;51.114;13.780;2022-10-04T18:58:23;11.10;1.00
573;DHT22;271;51.114;13.780;2022-10-04T19:01:26;11.00;1.00
573;DHT22;271;51.114;13.780;2022-10-04T19:04:18;11.00;1.00
573;DHT22;271;51.114;13.780;2022-10-04T19:06:49;10.90;1.00
573;DHT22;271;51.114;13.780;2022-10-04T19:09:25;10.90;1.00
573;DHT22;271;51.114;13.780;2022-10-04T19:12:00;10.90;1.00
573;DHT22;271;51.114;13.780;2022-10-04T19:14:36;10.80;1.00
573;DHT22;271;51.114;13.780;2022-10-04T19:17:14;10.80;1.00
573;DHT22;271;51.114;13.780;2022-10-04T19:19:51;10.90;1.00
573;DHT22;271;51.114;13.780;2022-10-04T19:22:31;10.80;1.00
573;DHT22;271;51.114;13.780;2022-10-04T19:25:15;10.80;1.00
573;DHT22;271;51.114;13.780;2022-10-04T19:27:49;11.00;1.00
573;DHT22;271;51.114;13.780;2022-10-04T19:30:19;10.90;1.00
573;DHT22;271;51.114;13.780;2022-10-04T19:32:55;10.90;1.00
573;DHT22;271;51.114;13.780;2022-10-04T19:35:35;10.90;1.00
573;DHT22;271;51.114;13.780;2022-10-04T19:38:22;10.90;1.00
573;DHT22;271;51.114;13.780;2022-10-04T19:40:54;10.90;1.00
573;DHT22;271;51.114;13.780;2022-10-04T19:43:30;11.00;1.00
573;DHT22;271;51.114;13.780;2022-10-04T19:46:06;10.90;1.00
573;DHT22;271;51.114;13.780;2022-10-04T19:48:41;10.90;1.00
573;DHT22;271;51.114;13.780;2022-10-04T19:51:15;10.90;1.00
573;DHT22;271;51.114;13.780;2022-10-04T19:53:48;10.80;1.00
573;DHT22;271;51.114;13.780;2022-10-04T19:56:17;10.90;1.00
573;DHT22;271;51.114;13.780;2022-10-04T19:58:49;10.90;1.00
573;DHT22;271;51.114;13.780;2022-10-04T20:01:21;10.90;1.00
573;DHT22;271;51.114;13.780;2022-10-04T20:03:50;10.90;1.00
573;DHT22;271;51.114;13.780;2022-10-04T20:06:47;10.90;1.00
573;DHT22;271;51.114;13.780;2022-10-04T20:09:24;10.90;1.00
573;DHT22;271;51.114;13.780;2022-10-04T20:11:56;10.90;1.00
573;DHT22;271;51.114;13.780;2022-10-04T20:14:43;10.90;1.00
573;DHT22;271;51.114;13.780;2022-10-04T20:17:29;10.80;1.00